createdAt,value
2022-09-22T00:00:09.600Z,102470.16
2022-09-22T00:02:39.044Z,102473.03
2022-09-22T00:05:09.012Z,102470.05
2022-09-22T00:07:38.353Z,102469.86
2022-09-22T00:10:08.209Z,102464.67
2022-09-22T00:12:37.645Z,102463.03
2022-09-22T00:15:09.833Z,102463.86
2022-09-22T00:17:39.103Z,102469.44
2022-09-22T00:20:08.784Z,102466.12
2022-09-22T00:22:38.284Z,102463.58
2022-09-22T00:25:09.256Z,102463.98
2022-09-22T00:27:39.174Z,102460.77
2022-09-22T00:30:09.466Z,102464.08
2022-09-22T00:32:42.116Z,102458.41
2022-09-22T00:35:10.767Z,102458.94
2022-09-22T00:37:40.057Z,102457.81
2022-09-22T00:40:10.288Z,102459.88
2022-09-22T00:42:39.719Z,102454.92
2022-09-22T00:45:12.413Z,102450.90
2022-09-22T00:47:41.910Z,102449.66
2022-09-22T00:50:17.370Z,102451.95
2022-09-22T00:53:04.224Z,102445.43
2022-09-22T00:55:35.959Z,102448.11
2022-09-22T00:58:07.721Z,102448.55
2022-09-22T01:00:37.356Z,102452.27
2022-09-22T01:03:09.122Z,102449.77
2022-09-22T01:05:38.993Z,102443.06
2022-09-22T01:08:09.767Z,102437.09
2022-09-22T01:10:39.351Z,102440.59
2022-09-22T01:13:24.479Z,102439.78
2022-09-22T01:16:08.591Z,102438.13
2022-09-22T01:18:56.189Z,102436.67
2022-09-22T01:21:37.247Z,102432.34
2022-09-22T01:24:43.339Z,102433.69
2022-09-22T01:27:18.278Z,102436.59
2022-09-22T01:30:07.381Z,102435.47
2022-09-22T01:32:51.542Z,102422.55
2022-09-22T01:35:40.603Z,102425.23
2022-09-22T01:38:34.019Z,102421.42
2022-09-22T01:41:12.544Z,102427.38
2022-09-22T01:43:48.174Z,102416.77
2022-09-22T01:46:26.544Z,102417.98
2022-09-22T01:48:58.200Z,102413.77
2022-09-22T01:51:30.691Z,102410.78
2022-09-22T01:54:05.746Z,102415.20
2022-09-22T01:56:35.770Z,102413.86
2022-09-22T01:59:07.623Z,102408.50
2022-09-22T02:01:49.491Z,102403.66
2022-09-22T02:04:34.079Z,102400.88
2022-09-22T02:07:11.271Z,102397.27
2022-09-22T02:09:41.347Z,102394.19
2022-09-22T02:12:10.762Z,102399.95
2022-09-22T02:14:40.222Z,102396.05
2022-09-22T02:17:10.498Z,102389.75
2022-09-22T02:19:41.310Z,102385.73
2022-09-22T02:22:12.166Z,102384.08
2022-09-22T02:24:43.991Z,102378.72
2022-09-22T02:27:20.385Z,102376.44
2022-09-22T02:29:52.085Z,102372.12
2022-09-22T02:32:22.178Z,102365.72
2022-09-22T02:34:51.574Z,102366.88
2022-09-22T02:37:23.594Z,102368.83
2022-09-22T02:40:23.735Z,102364.69
2022-09-22T02:43:29.729Z,102359.75
2022-09-22T02:46:23.574Z,102361.61
2022-09-22T02:48:55.860Z,102359.45
2022-09-22T02:51:25.153Z,102359.33
2022-09-22T02:53:54.554Z,102362.23
2022-09-22T02:56:24.021Z,102364.17
2022-09-22T02:58:58.200Z,102358.20
2022-09-22T03:01:24.357Z,102358.94
2022-09-22T03:03:54.052Z,102360.67
2022-09-22T03:06:23.320Z,102353.88
2022-09-22T03:08:52.755Z,102355.92
2022-09-22T03:11:21.979Z,102353.67
2022-09-22T03:13:51.700Z,102356.45
2022-09-22T03:16:21.029Z,102350.99
2022-09-22T03:18:50.393Z,102348.20
2022-09-22T03:21:19.685Z,102342.14
2022-09-22T03:23:49.572Z,102345.30
2022-09-22T03:26:19.069Z,102344.61
2022-09-22T03:28:48.825Z,102342.94
2022-09-22T03:31:18.156Z,102341.20
2022-09-22T03:33:52.002Z,102340.47
2022-09-22T03:36:18.562Z,102338.61
2022-09-22T03:38:47.838Z,102340.08
2022-09-22T03:41:17.576Z,102341.72
2022-09-22T03:43:46.803Z,102338.40
2022-09-22T03:46:16.619Z,102338.31
2022-09-22T03:48:45.904Z,102338.19
2022-09-22T03:51:15.147Z,102339.53
2022-09-22T03:53:44.568Z,102335.11
2022-09-22T03:56:16.354Z,102331.61
2022-09-22T03:58:45.771Z,102339.65
2022-09-22T04:01:15.408Z,102332.31
2022-09-22T04:03:44.636Z,102331.19
2022-09-22T04:06:14.260Z,102333.05
2022-09-22T04:08:43.745Z,102327.38
2022-09-22T04:11:13.252Z,102328.42
2022-09-22T04:13:46.234Z,102321.91
2022-09-22T04:16:13.756Z,102317.06
2022-09-22T04:18:43.025Z,102324.49
2022-09-22T04:21:12.287Z,102326.95
2022-09-22T04:23:41.532Z,102317.06
2022-09-22T04:26:10.759Z,102321.81
2022-09-22T04:28:40.068Z,102320.34
2022-09-22T04:31:09.436Z,102317.76
2022-09-22T04:33:40.627Z,102317.45
2022-09-22T04:36:09.946Z,102316.62
2022-09-22T04:38:39.334Z,102321.26
2022-09-22T04:41:08.596Z,102317.45
2022-09-22T04:43:38.064Z,102312.83
2022-09-22T04:46:07.523Z,102314.47
2022-09-22T04:48:36.787Z,102316.20
2022-09-22T04:51:06.125Z,102311.87
2022-09-22T04:53:35.612Z,102312.19
2022-09-22T04:56:05.104Z,102310.97
2022-09-22T04:58:34.318Z,102320.03
2022-09-22T05:01:05.752Z,102313.64
2022-09-22T05:03:36.761Z,102316.02
2022-09-22T05:06:07.438Z,102312.91
2022-09-22T05:08:36.696Z,102322.37
2022-09-22T05:11:07.962Z,102321.76
2022-09-22T05:13:39.122Z,102317.83
2022-09-22T05:16:09.130Z,102321.75
2022-09-22T05:18:39.558Z,102320.59
2022-09-22T05:21:08.949Z,102321.44
2022-09-22T05:23:39.653Z,102315.36
2022-09-22T05:26:09.049Z,102317.52
2022-09-22T05:28:38.448Z,102319.38
2022-09-22T05:31:08.056Z,102316.91
2022-09-22T05:33:38.934Z,102319.07
2022-09-22T05:36:08.932Z,102318.55
2022-09-22T05:38:38.251Z,102314.45
2022-09-22T05:41:07.652Z,102315.06
2022-09-22T05:43:37.304Z,102312.30
2022-09-22T05:46:07.211Z,102317.97
2022-09-22T05:48:36.471Z,102323.02
2022-09-22T05:51:05.846Z,102327.33
2022-09-22T05:53:35.061Z,102326.43
2022-09-22T05:56:04.472Z,102321.99
2022-09-22T05:58:33.761Z,102324.58
2022-09-22T06:01:04.557Z,102322.42
2022-09-22T06:03:34.048Z,102325.02
2022-09-22T06:06:03.406Z,102325.74
2022-09-22T06:08:33.161Z,102332.04
2022-09-22T06:11:02.577Z,102326.16
2022-09-22T06:13:31.968Z,102324.81
2022-09-22T06:16:05.196Z,102333.15
2022-09-22T06:18:36.374Z,102326.98
2022-09-22T06:21:07.094Z,102325.73
2022-09-22T06:23:40.610Z,102327.26
2022-09-22T06:26:07.785Z,102328.43
2022-09-22T06:28:37.197Z,102325.17
2022-09-22T06:31:07.061Z,102318.20
2022-09-22T06:33:36.415Z,102322.98
2022-09-22T06:36:07.885Z,102323.92
2022-09-22T06:38:37.512Z,102322.75
2022-09-22T06:41:07.376Z,102321.23
2022-09-22T06:43:38.038Z,102319.75
2022-09-22T06:46:09.132Z,102315.59
2022-09-22T06:48:38.660Z,102319.00
2022-09-22T06:51:08.505Z,102309.78
2022-09-22T06:53:39.106Z,102316.86
2022-09-22T06:56:08.907Z,102318.02
2022-09-22T06:58:58.558Z,102317.95
2022-09-22T07:01:10.074Z,102318.83
2022-09-22T07:03:41.118Z,102317.32
2022-09-22T07:06:11.002Z,102319.13
2022-09-22T07:08:40.400Z,102319.10
2022-09-22T07:11:10.767Z,102316.64
2022-09-22T07:13:42.274Z,102326.05
2022-09-22T07:16:15.303Z,102324.13
2022-09-22T07:18:47.379Z,102323.56
2022-09-22T07:21:22.860Z,102314.45
2022-09-22T07:23:55.050Z,102319.29
2022-09-22T07:26:30.802Z,102315.34
2022-09-22T07:29:01.815Z,102319.00
2022-09-22T07:31:34.132Z,102315.42
2022-09-22T07:34:03.403Z,102313.56
2022-09-22T07:36:34.454Z,102309.88
2022-09-22T07:39:07.497Z,102310.64
2022-09-22T07:41:38.949Z,102311.00
2022-09-22T07:44:26.480Z,102311.44
2022-09-22T07:46:55.771Z,102306.77
2022-09-22T07:49:25.177Z,102308.69
2022-09-22T07:51:55.033Z,102310.06
2022-09-22T07:54:25.724Z,102301.20
2022-09-22T07:57:02.161Z,102306.83
2022-09-22T07:59:31.578Z,102305.94
2022-09-22T08:02:02.211Z,102302.58
2022-09-22T08:04:32.824Z,102299.59
2022-09-22T08:07:02.204Z,102306.08
2022-09-22T08:09:33.203Z,102299.69
2022-09-22T08:12:02.781Z,102295.41
2022-09-22T08:14:32.188Z,102292.72
2022-09-22T08:17:01.452Z,102294.34
2022-09-22T08:19:32.395Z,102289.01
2022-09-22T08:22:01.610Z,102294.98
2022-09-22T08:24:31.250Z,102293.55
2022-09-22T08:27:00.549Z,102289.49
2022-09-22T08:29:30.537Z,102288.53
2022-09-22T08:31:59.771Z,102286.83
2022-09-22T08:34:29.197Z,102281.78
2022-09-22T08:36:58.583Z,102282.59
2022-09-22T08:39:28.105Z,102288.34
2022-09-22T08:42:17.156Z,102289.36
2022-09-22T08:44:58.404Z,102287.98
2022-09-22T08:47:48.682Z,102284.67
2022-09-22T08:50:44.590Z,102281.13
2022-09-22T08:53:16.453Z,102281.31
2022-09-22T08:55:48.197Z,102277.94
2022-09-22T08:58:38.607Z,102276.80
2022-09-22T09:01:30.506Z,102280.27
2022-09-22T09:04:07.549Z,102284.55
2022-09-22T09:06:46.738Z,102289.84
2022-09-22T09:09:40.462Z,102286.23
2022-09-22T09:12:29.646Z,102284.59
2022-09-22T09:15:29.335Z,102289.77
2022-09-22T09:18:01.871Z,102291.47
2022-09-22T09:20:39.951Z,102285.84
2022-09-22T09:23:16.246Z,102294.51
2022-09-22T09:25:48.175Z,102291.72
2022-09-22T09:28:32.510Z,102290.96
2022-09-22T09:31:07.820Z,102293.11
2022-09-22T09:33:46.091Z,102293.97
2022-09-22T09:36:20.584Z,102293.16
2022-09-22T09:38:54.987Z,102296.00
2022-09-22T09:41:26.334Z,102295.39
2022-09-22T09:43:56.476Z,102298.12
2022-09-22T09:46:38.234Z,102290.81
2022-09-22T09:49:10.587Z,102286.61
2022-09-22T09:51:43.174Z,102285.95
2022-09-22T09:54:17.356Z,102290.61
2022-09-22T09:57:12.175Z,102283.45
2022-09-22T10:00:02.358Z,102287.70
2022-09-22T10:02:36.388Z,102280.39
2022-09-22T10:05:20.739Z,102279.88
2022-09-22T10:07:53.267Z,102283.03
2022-09-22T10:10:34.175Z,102278.66
2022-09-22T10:13:09.483Z,102275.36
2022-09-22T10:15:41.159Z,102276.09
2022-09-22T10:18:28.658Z,102266.94
2022-09-22T10:21:07.123Z,102266.61
2022-09-22T10:23:36.440Z,102267.65
2022-09-22T10:26:26.864Z,102264.95
2022-09-22T10:29:19.012Z,102260.41
2022-09-22T10:32:13.739Z,102262.11
2022-09-22T10:34:47.912Z,102262.12
2022-09-22T10:37:19.129Z,102254.31
2022-09-22T10:39:53.278Z,102257.92
2022-09-22T10:42:34.563Z,102253.16
2022-09-22T10:45:10.259Z,102245.11
2022-09-22T10:47:54.937Z,102247.44
2022-09-22T10:50:28.388Z,102246.56
2022-09-22T10:53:03.518Z,102240.80
2022-09-22T10:55:38.239Z,102242.84
2022-09-22T10:58:10.776Z,102236.73
2022-09-22T11:00:42.402Z,102238.45
2022-09-22T11:03:41.863Z,102231.36
2022-09-22T11:06:44.315Z,102226.18
2022-09-22T11:09:56.194Z,102225.38
2022-09-22T11:12:55.585Z,102225.97
2022-09-22T11:15:33.633Z,102221.47
2022-09-22T11:18:15.034Z,102214.82
2022-09-22T11:20:45.992Z,102217.57
2022-09-22T11:23:39.655Z,102219.86
2022-09-22T11:26:14.642Z,102214.53
2022-09-22T11:28:54.900Z,102212.87
2022-09-22T11:31:27.566Z,102214.70
2022-09-22T11:34:02.979Z,102205.92
2022-09-22T11:36:41.060Z,102205.59
2022-09-22T11:39:28.555Z,102199.08
2022-09-22T11:42:03.485Z,102200.05
2022-09-22T11:44:52.502Z,102192.08
2022-09-22T11:47:33.838Z,102188.77
2022-09-22T11:50:18.145Z,102184.30
2022-09-22T11:53:07.375Z,102185.14
2022-09-22T11:56:05.234Z,102183.20
2022-09-22T11:58:35.421Z,102179.98
2022-09-22T12:01:13.579Z,102176.22
2022-09-22T12:03:58.133Z,102177.28
2022-09-22T12:06:30.648Z,102179.44
2022-09-22T12:09:05.529Z,102172.51
2022-09-22T12:11:36.492Z,102163.80
2022-09-22T12:14:06.410Z,102158.19
2022-09-22T12:16:40.370Z,102148.75
2022-09-22T12:19:32.740Z,102146.94
2022-09-22T12:22:13.895Z,102148.03
2022-09-22T12:24:47.553Z,102138.59
2022-09-22T12:27:22.679Z,102138.59
2022-09-22T12:30:03.958Z,102135.02
2022-09-22T12:32:41.918Z,102133.55
2022-09-22T12:35:23.750Z,102127.24
2022-09-22T12:37:54.681Z,102126.95
2022-09-22T12:40:27.262Z,102123.17
2022-09-22T12:42:56.568Z,102120.94
2022-09-22T12:45:34.188Z,102111.84
2022-09-22T12:48:09.814Z,102111.84
2022-09-22T12:50:42.385Z,102104.51
2022-09-22T12:53:14.748Z,102105.84
2022-09-22T12:55:44.039Z,102101.05
2022-09-22T12:58:25.488Z,102110.95
2022-09-22T13:00:56.813Z,102090.44
2022-09-22T13:03:30.488Z,102096.16
2022-09-22T13:06:03.777Z,102107.72
2022-09-22T13:08:36.949Z,102102.80
2022-09-22T13:11:08.424Z,102093.17
2022-09-22T13:13:48.219Z,102093.58
2022-09-22T13:16:20.804Z,102095.44
2022-09-22T13:18:55.897Z,102085.34
2022-09-22T13:21:28.432Z,102078.93
2022-09-22T13:24:01.450Z,102080.85
2022-09-22T13:26:39.378Z,102079.88
2022-09-22T13:29:14.179Z,102071.88
2022-09-22T13:31:45.740Z,102068.73
2022-09-22T13:34:32.014Z,102069.48
2022-09-22T13:37:07.978Z,102069.74
2022-09-22T13:39:43.422Z,102073.98
2022-09-22T13:42:15.551Z,102068.41
2022-09-22T13:44:47.665Z,102065.27
2022-09-22T13:47:19.618Z,102070.05
2022-09-22T13:49:52.693Z,102060.47
2022-09-22T13:52:24.839Z,102065.83
2022-09-22T13:54:56.080Z,102055.09
2022-09-22T13:57:34.665Z,102049.97
2022-09-22T14:00:05.700Z,102056.34
2022-09-22T14:02:36.841Z,102048.76
2022-09-22T14:05:08.191Z,102051.45
2022-09-22T14:07:55.327Z,102049.55
2022-09-22T14:10:11.902Z,102043.13
2022-09-22T14:12:41.309Z,102038.66
2022-09-22T14:15:40.296Z,102037.05
2022-09-22T14:18:28.041Z,102036.27
2022-09-22T14:20:58.773Z,102033.92
2022-09-22T14:23:30.450Z,102030.87
2022-09-22T14:26:02.656Z,102028.46
2022-09-22T14:28:34.735Z,102015.25
2022-09-22T14:31:05.700Z,102018.51
2022-09-22T14:33:37.949Z,102021.22
2022-09-22T14:36:08.256Z,102016.48
2022-09-22T14:38:47.714Z,102015.75
2022-09-22T14:41:24.914Z,102016.20
2022-09-22T14:43:54.642Z,102009.62
2022-09-22T14:46:38.679Z,102005.25
2022-09-22T14:49:43.798Z,102008.80
2022-09-22T14:52:30.896Z,102008.11
2022-09-22T14:55:03.897Z,101999.20
2022-09-22T14:57:33.445Z,101994.84
2022-09-22T15:00:22.211Z,102000.09
2022-09-22T15:02:55.755Z,102000.84
2022-09-22T15:05:30.414Z,101997.16
2022-09-22T15:08:00.938Z,101990.02
2022-09-22T15:10:32.779Z,101994.53
2022-09-22T15:13:32.374Z,101992.80
2022-09-22T15:16:02.002Z,101992.65
2022-09-22T15:18:31.388Z,101990.41
2022-09-22T15:21:08.391Z,101992.25
2022-09-22T15:23:48.031Z,101988.63
2022-09-22T15:26:24.979Z,101987.70
2022-09-22T15:28:54.168Z,101980.23
2022-09-22T15:31:30.091Z,101985.52
2022-09-22T15:34:03.093Z,101980.98
2022-09-22T15:36:33.686Z,101985.19
2022-09-22T15:39:07.838Z,101984.64
2022-09-22T15:41:38.560Z,101976.36
2022-09-22T15:44:09.270Z,101978.94
2022-09-22T15:46:39.301Z,101976.78
2022-09-22T15:49:14.982Z,101971.04
2022-09-22T15:51:46.028Z,101976.83
2022-09-22T15:54:16.674Z,101977.63
2022-09-22T15:56:48.145Z,101980.34
2022-09-22T15:59:21.801Z,101976.77
2022-09-22T16:01:56.238Z,101971.94
2022-09-22T16:04:31.653Z,101964.31
2022-09-22T16:07:04.751Z,101965.03
2022-09-22T16:09:34.443Z,101965.92
2022-09-22T16:12:05.643Z,101960.70
2022-09-22T16:14:36.757Z,101960.19
2022-09-22T16:17:07.794Z,101960.30
2022-09-22T16:19:37.061Z,101959.67
2022-09-22T16:22:06.516Z,101963.84
2022-09-22T16:24:35.893Z,101959.50
2022-09-22T16:27:07.131Z,101950.55
2022-09-22T16:29:37.606Z,101948.70
2022-09-22T16:32:07.240Z,101949.82
2022-09-22T16:34:37.369Z,101946.65
2022-09-22T16:37:06.581Z,101946.70
2022-09-22T16:39:35.863Z,101936.93
2022-09-22T16:42:05.199Z,101942.95
2022-09-22T16:44:34.512Z,101938.91
2022-09-22T16:47:04.263Z,101937.56
2022-09-22T16:49:34.087Z,101940.86
2022-09-22T16:52:03.368Z,101935.98
2022-09-22T16:54:33.806Z,101935.97
2022-09-22T16:57:03.093Z,101929.75
2022-09-22T16:59:33.435Z,101934.93
2022-09-22T17:02:02.703Z,101931.67
2022-09-22T17:04:32.595Z,101928.67
2022-09-22T17:07:01.862Z,101928.95
2022-09-22T17:09:32.283Z,101927.30
2022-09-22T17:12:02.731Z,101930.25
2022-09-22T17:14:32.720Z,101930.20
2022-09-22T17:17:03.574Z,101921.50
2022-09-22T17:19:33.004Z,101922.26
2022-09-22T17:22:02.596Z,101920.08
2022-09-22T17:24:32.067Z,101925.42
2022-09-22T17:27:01.289Z,101925.13
2022-09-22T17:29:32.932Z,101924.50
2022-09-22T17:32:08.022Z,101927.45
2022-09-22T17:34:38.349Z,101920.86
2022-09-22T17:37:09.401Z,101927.59
2022-09-22T17:39:38.783Z,101919.70
2022-09-22T17:42:08.737Z,101924.43
2022-09-22T17:44:37.979Z,101918.20
2022-09-22T17:47:25.220Z,101913.56
2022-09-22T17:50:12.378Z,101914.87
2022-09-22T17:52:59.645Z,101917.03
2022-09-22T17:55:29.442Z,101916.77
2022-09-22T17:57:58.806Z,101914.51
2022-09-22T18:00:28.270Z,101932.05
2022-09-22T18:02:58.518Z,101921.95
2022-09-22T18:05:28.219Z,101921.36
2022-09-22T18:07:58.581Z,101918.01
2022-09-22T18:10:31.938Z,101923.36
2022-09-22T18:13:02.448Z,101916.77
2022-09-22T18:15:31.910Z,101912.11
2022-09-22T18:18:01.292Z,101918.28
2022-09-22T18:20:32.532Z,101917.99
2022-09-22T18:23:03.424Z,101916.05
2022-09-22T18:25:34.149Z,101915.19
2022-09-22T18:28:05.150Z,101915.17
2022-09-22T18:30:34.432Z,101915.71
2022-09-22T18:33:03.819Z,101915.37
2022-09-22T18:35:33.173Z,101916.68
2022-09-22T18:38:06.060Z,101918.78
2022-09-22T18:40:35.460Z,101925.51
2022-09-22T18:43:04.914Z,101922.22
2022-09-22T18:45:35.912Z,101916.72
2022-09-22T18:48:07.044Z,101921.84
2022-09-22T18:50:36.629Z,101920.50
2022-09-22T18:53:05.931Z,101914.56
2022-09-22T18:55:35.207Z,101916.49
2022-09-22T18:58:04.560Z,101921.89
2022-09-22T19:00:33.804Z,101920.59
2022-09-22T19:03:03.288Z,101919.03
2022-09-22T19:05:32.767Z,101921.14
2022-09-22T19:08:02.142Z,101927.04
2022-09-22T19:10:31.482Z,101917.53
2022-09-22T19:13:02.207Z,101922.06
2022-09-22T19:15:31.582Z,101919.60
2022-09-22T19:18:00.855Z,101922.30
2022-09-22T19:20:31.186Z,101914.96
2022-09-22T19:23:00.524Z,101924.41
2022-09-22T19:25:30.074Z,101922.52
2022-09-22T19:28:01.169Z,101926.52
2022-09-22T19:30:31.607Z,101919.76
2022-09-22T19:33:01.911Z,101916.48
2022-09-22T19:35:31.132Z,101918.06
2022-09-22T19:38:02.215Z,101919.39
2022-09-22T19:40:33.520Z,101918.80
2022-09-22T19:43:03.367Z,101914.22
2022-09-22T19:45:32.854Z,101924.66
2022-09-22T19:48:02.540Z,101915.92
2022-09-22T19:50:31.774Z,101916.12
2022-09-22T19:53:01.008Z,101914.98
2022-09-22T19:55:30.236Z,101910.09
2022-09-22T19:58:00.161Z,101907.91
2022-09-22T20:00:30.576Z,101911.45
2022-09-22T20:03:02.894Z,101911.11
2022-09-22T20:05:37.864Z,101906.45
2022-09-22T20:08:15.897Z,101906.12
2022-09-22T20:10:47.011Z,101905.03
2022-09-22T20:13:34.722Z,101901.18
2022-09-22T20:16:04.555Z,101891.37
2022-09-22T20:18:37.281Z,101897.28
2022-09-22T20:21:07.397Z,101882.62
2022-09-22T20:23:37.156Z,101889.56
2022-09-22T20:26:06.854Z,101887.41
2022-09-22T20:31:55.780Z,101887.34
2022-09-22T20:34:25.008Z,101889.51
2022-09-22T20:36:54.366Z,101883.83
2022-09-22T20:39:23.807Z,101882.20
2022-09-22T20:41:53.336Z,101882.41
2022-09-22T20:44:22.714Z,101878.87
2022-09-22T20:46:51.938Z,101872.32
2022-09-22T20:49:22.286Z,101873.86
2022-09-22T20:51:51.554Z,101873.78
2022-09-22T20:54:24.480Z,101874.28
2022-09-22T20:56:54.445Z,101873.16
2022-09-22T20:59:23.772Z,101872.88
2022-09-22T21:01:53.054Z,101869.09
2022-09-22T21:04:23.486Z,101869.28
2022-09-22T21:06:55.796Z,101864.05
2022-09-22T21:09:42.949Z,101858.80
2022-09-22T21:12:13.580Z,101859.33
2022-09-22T21:14:44.440Z,101857.39
2022-09-22T21:17:14.716Z,101858.20
2022-09-22T21:19:45.786Z,101853.84
2022-09-22T21:22:15.173Z,101848.70
2022-09-22T21:24:46.401Z,101851.34
2022-09-22T21:27:15.986Z,101842.64
2022-09-22T21:29:45.357Z,101839.63
2022-09-22T21:32:14.844Z,101838.50
2022-09-22T21:34:44.373Z,101840.57
2022-09-22T21:37:14.557Z,101839.53
2022-09-22T21:39:43.875Z,101841.64
2022-09-22T21:42:13.219Z,101836.78
2022-09-22T21:44:42.518Z,101837.81
2022-09-22T21:47:11.750Z,101832.64
2022-09-22T21:49:41.181Z,101827.16
2022-09-22T21:52:10.398Z,101826.31
2022-09-22T21:54:39.710Z,101824.69
2022-09-22T21:57:08.953Z,101818.45
2022-09-22T21:59:38.257Z,101814.95
2022-09-22T22:02:07.827Z,101808.72
2022-09-22T22:04:37.134Z,101808.12
2022-09-22T22:07:06.540Z,101811.06
2022-09-22T22:09:35.764Z,101814.00
2022-09-22T22:12:05.246Z,101809.87
2022-09-22T22:14:34.857Z,101808.80
2022-09-22T22:17:05.683Z,101803.38
2022-09-22T22:19:35.019Z,101805.27
2022-09-22T22:22:05.237Z,101805.27
2022-09-22T22:24:36.156Z,101799.81
2022-09-22T22:27:09.809Z,101796.88
2022-09-22T22:29:39.619Z,101798.75
2022-09-22T22:32:10.409Z,101801.79
2022-09-22T22:34:39.869Z,101802.35
2022-09-22T22:37:10.740Z,101798.56
2022-09-22T22:39:40.074Z,101790.77
2022-09-22T22:42:09.345Z,101785.00
2022-09-22T22:44:38.683Z,101781.74
2022-09-22T22:47:08.628Z,101787.13
2022-09-22T22:49:38.329Z,101770.16
2022-09-22T22:52:07.769Z,101779.23
2022-09-22T22:54:36.995Z,101778.33
2022-09-22T22:57:06.578Z,101774.32
2022-09-22T22:59:35.770Z,101770.00
2022-09-22T23:02:05.048Z,101773.32
2022-09-22T23:04:34.280Z,101777.70
2022-09-22T23:07:03.566Z,101778.23
2022-09-22T23:09:32.763Z,101773.70
2022-09-22T23:12:02.232Z,101774.48
2022-09-22T23:14:31.442Z,101777.73
2022-09-22T23:17:00.727Z,101773.70
2022-09-22T23:19:29.952Z,101772.95
2022-09-22T23:21:59.457Z,101769.44
2022-09-22T23:24:28.742Z,101771.25
2022-09-22T23:26:58.628Z,101766.88
2022-09-22T23:29:27.843Z,101761.98
2022-09-22T23:31:57.199Z,101758.14
2022-09-22T23:34:26.446Z,101759.45
2022-09-22T23:36:55.787Z,101758.39
2022-09-22T23:39:25.068Z,101754.56
2022-09-22T23:41:55.275Z,101754.53
2022-09-22T23:44:24.512Z,101756.88
2022-09-22T23:46:53.928Z,101752.27
2022-09-22T23:49:23.146Z,101755.44
2022-09-22T23:51:52.499Z,101750.30
2022-09-22T23:54:21.729Z,101742.47
2022-09-22T23:56:51.005Z,101745.70
2022-09-22T23:59:20.221Z,101743.53
